Time;durP1;ratioP1;P1;durP2;ratioP2;P2;SDS_P1;SDS_P2;PMS_P1;PMS_P2;Temp;Humidity;BMP_temperature;BMP_pressure;BME280_temperature;BME280_humidity;BME280_pressure;Samples;Min_cycle;Max_cycle;Signal;HPM_P1;HPM_P2
2023/05/30 00:01:48;;;;;;;10.18;2.65;;;10.70;99.90;;;;;;5028515;28;20089;-79
2023/05/30 00:04:14;;;;;;;20.75;2.55;;;10.70;99.90;;;;;;5030827;28;20106;-79
2023/05/30 00:06:40;;;;;;;16.02;2.92;;;10.70;99.90;;;;;;5030516;28;20933;-80
2023/05/30 00:09:05;;;;;;;9.57;2.33;;;10.70;99.90;;;;;;5030193;28;20044;-80
2023/05/30 00:11:31;;;;;;;10.95;2.22;;;10.80;99.90;;;;;;5034411;28;20073;-79
2023/05/30 00:13:57;;;;;;;15.73;3.13;;;10.60;99.90;;;;;;5033048;28;20084;-80
2023/05/30 00:16:23;;;;;;;13.98;3.33;;;10.70;99.90;;;;;;5028293;28;20132;-79
2023/05/30 00:18:52;;;;;;;13.77;2.83;;;10.70;99.90;;;;;;5031462;28;20053;-79
2023/05/30 00:21:18;;;;;;;13.07;2.70;;;10.70;99.90;;;;;;5034113;28;20045;-80
2023/05/30 00:23:49;;;;;;;11.63;3.58;;;10.80;99.90;;;;;;5028860;28;21823;-79
2023/05/30 00:26:14;;;;;;;9.43;2.55;;;10.70;99.90;;;;;;5031533;28;20068;-80
2023/05/30 00:28:40;;;;;;;19.35;3.22;;;10.70;99.90;;;;;;5032353;28;20755;-79
2023/05/30 00:31:06;;;;;;;12.35;2.90;;;10.80;99.90;;;;;;5030089;28;20385;-79
2023/05/30 00:33:32;;;;;;;14.23;2.92;;;10.70;99.90;;;;;;5031579;28;20551;-80
2023/05/30 00:35:58;;;;;;;12.85;3.53;;;10.70;99.90;;;;;;5032148;28;20052;-79
2023/05/30 00:38:23;;;;;;;15.25;3.83;;;10.70;99.90;;;;;;5030213;28;20033;-80
2023/05/30 00:40:49;;;;;;;11.73;3.22;;;10.70;99.90;;;;;;5032170;28;20036;-79
2023/05/30 00:43:18;;;;;;;12.23;3.28;;;10.70;99.90;;;;;;5035700;28;20037;-80
2023/05/30 00:45:44;;;;;;;7.07;2.22;;;11.10;99.90;;;;;;5036176;28;20049;-80
2023/05/30 00:48:09;;;;;;;11.88;3.35;;;10.70;99.90;;;;;;5031229;28;20041;-80
2023/05/30 00:50:36;;;;;;;10.60;2.88;;;10.70;99.90;;;;;;5034778;28;20041;-80
2023/05/30 00:53:04;;;;;;;7.53;2.67;;;10.80;99.90;;;;;;5036229;28;20083;-79
2023/05/30 00:55:30;;;;;;;10.80;3.08;;;10.70;99.90;;;;;;5033465;28;20050;-80
2023/05/30 00:57:56;;;;;;;13.45;2.92;;;10.70;99.90;;;;;;5031726;28;20399;-80
2023/05/30 01:00:24;;;;;;;15.32;3.83;;;10.70;99.90;;;;;;5034837;28;20042;-80
2023/05/30 01:02:51;;;;;;;11.50;3.63;;;10.70;99.90;;;;;;5035297;28;20045;-80
2023/05/30 01:05:17;;;;;;;13.50;3.00;;;10.70;99.90;;;;;;5032566;28;20041;-79
2023/05/30 01:07:43;;;;;;;9.10;3.20;;;10.70;99.90;;;;;;5030571;28;20128;-80
2023/05/30 01:10:15;;;;;;;18.70;3.50;;;10.70;99.90;;;;;;5032941;28;20094;-80
2023/05/30 01:13:09;;;;;;;9.27;2.28;;;10.70;99.90;;;;;;5033245;28;20301;-80
2023/05/30 01:15:45;;;;;;;12.90;3.13;;;10.70;99.90;;;;;;5035883;28;20531;-80
2023/05/30 01:18:13;;;;;;;15.65;2.83;;;10.70;99.90;;;;;;5030090;28;20100;-79
2023/05/30 01:20:48;;;;;;;11.52;2.97;;;10.80;99.90;;;;;;5035363;28;20553;-80
2023/05/30 01:23:39;;;;;;;14.82;2.92;;;10.70;99.90;;;;;;5032518;28;20095;-80
2023/05/30 01:26:42;;;;;;;14.27;3.10;;;10.70;99.90;;;;;;5035932;28;20091;-80
2023/05/30 01:29:14;;;;;;;10.32;2.60;;;10.70;99.90;;;;;;5030381;28;20038;-80
2023/05/30 01:31:41;;;;;;;15.73;2.95;;;10.70;99.90;;;;;;5033967;28;20049;-80
2023/05/30 01:34:07;;;;;;;11.60;2.38;;;10.70;99.90;;;;;;5034961;28;20064;-80
2023/05/30 01:36:33;;;;;;;10.25;3.35;;;10.70;99.90;;;;;;5033700;28;20038;-80
2023/05/30 01:38:58;;;;;;;18.33;3.45;;;10.70;99.90;;;;;;5035219;28;20038;-79
2023/05/30 01:41:53;;;;;;;9.75;2.75;;;10.70;99.90;;;;;;5028731;28;20423;-80
2023/05/30 01:44:44;;;;;;;7.38;2.10;;;10.70;99.90;;;;;;5029493;28;20044;-80
2023/05/30 01:47:16;;;;;;;11.88;2.72;;;10.70;99.90;;;;;;5027895;28;20065;-79
2023/05/30 01:49:50;;;;;;;15.38;2.70;;;10.70;99.90;;;;;;5032829;28;20068;-80
2023/05/30 01:52:20;;;;;;;10.27;2.33;;;10.70;99.90;;;;;;5029454;28;20266;-79
2023/05/30 01:54:53;;;;;;;12.13;2.88;;;10.70;99.90;;;;;;5032571;28;20041;-80
2023/05/30 01:57:20;;;;;;;8.57;2.28;;;10.80;99.90;;;;;;5031881;28;20052;-81
2023/05/30 01:59:46;;;;;;;7.43;2.00;;;10.70;99.90;;;;;;5031923;28;20546;-80
2023/05/30 02:02:12;;;;;;;8.82;2.15;;;10.70;99.90;;;;;;5032105;28;20116;-80
2023/05/30 02:04:38;;;;;;;16.98;2.47;;;10.70;99.90;;;;;;5033855;28;20610;-80
2023/05/30 02:07:04;;;;;;;12.95;2.95;;;10.60;99.90;;;;;;5033746;28;20064;-80
2023/05/30 02:09:30;;;;;;;9.57;2.15;;;10.60;99.90;;;;;;5031908;28;20092;-80
2023/05/30 02:11:55;;;;;;;10.98;3.08;;;10.60;99.90;;;;;;5032246;28;20037;-80
2023/05/30 02:14:24;;;;;;;15.07;3.70;;;10.60;99.90;;;;;;5033387;28;20046;-80
2023/05/30 02:16:50;;;;;;;9.75;2.53;;;10.60;99.90;;;;;;5027362;28;20174;-81
2023/05/30 02:19:16;;;;;;;11.68;3.15;;;10.60;99.90;;;;;;5029319;28;20033;-80
2023/05/30 02:21:41;;;;;;;11.02;2.17;;;10.60;99.90;;;;;;5031603;28;20570;-80
2023/05/30 02:24:07;;;;;;;13.10;3.05;;;10.50;99.90;;;;;;5014303;28;20034;-79
2023/05/30 02:26:36;;;;;;;15.70;2.95;;;10.60;99.90;;;;;;5030654;28;20048;-80
2023/05/30 02:29:02;;;;;;;11.93;2.40;;;10.60;99.90;;;;;;5029193;28;20559;-79
2023/05/30 02:31:27;;;;;;;9.27;2.33;;;10.60;99.90;;;;;;5032090;28;20149;-80
2023/05/30 02:33:53;;;;;;;9.80;3.25;;;10.60;99.90;;;;;;5030024;28;20630;-80
2023/05/30 02:36:19;;;;;;;9.18;2.05;;;10.60;99.90;;;;;;5033376;28;20038;-80
2023/05/30 02:38:44;;;;;;;12.05;2.38;;;10.60;99.90;;;;;;5030653;28;20045;-80
2023/05/30 02:41:10;;;;;;;11.27;3.00;;;10.50;99.90;;;;;;5030030;28;20037;-80
2023/05/30 02:43:35;;;;;;;6.57;2.15;;;10.50;99.90;;;;;;5028485;28;20045;-80
2023/05/30 02:46:04;;;;;;;14.77;3.60;;;10.50;99.90;;;;;;5028513;28;20045;-80
2023/05/30 02:48:29;;;;;;;12.15;3.63;;;10.50;99.90;;;;;;5030581;28;20037;-79
2023/05/30 02:50:55;;;;;;;12.27;2.85;;;10.50;99.90;;;;;;5032176;28;20125;-80
2023/05/30 02:53:21;;;;;;;10.45;2.22;;;10.50;99.90;;;;;;5030373;28;20503;-80
2023/05/30 02:55:46;;;;;;;12.75;2.72;;;10.50;99.90;;;;;;5045178;28;20042;-80
2023/05/30 02:58:13;;;;;;;13.50;3.05;;;10.50;99.90;;;;;;5028266;28;20056;-79
2023/05/30 03:00:39;;;;;;;10.57;2.10;;;10.50;99.90;;;;;;5028822;28;20041;-80
2023/05/30 03:03:07;;;;;;;8.98;2.45;;;10.50;99.90;;;;;;5031614;28;20041;-80
2023/05/30 03:05:34;;;;;;;10.52;2.30;;;10.50;99.90;;;;;;5029419;28;20124;-80
2023/05/30 03:08:00;;;;;;;12.25;2.88;;;10.50;99.90;;;;;;5033504;28;20041;-80
2023/05/30 03:10:26;;;;;;;11.60;2.83;;;10.60;99.90;;;;;;5029622;28;20052;-80
2023/05/30 03:12:51;;;;;;;12.07;2.85;;;10.50;99.90;;;;;;5029975;28;20136;-80
2023/05/30 03:15:20;;;;;;;13.30;3.92;;;10.60;99.90;;;;;;5030140;28;20065;-80
2023/05/30 03:17:46;;;;;;;12.10;2.95;;;10.60;99.90;;;;;;5030765;28;20065;-80
2023/05/30 03:20:12;;;;;;;11.15;2.72;;;10.60;99.90;;;;;;5031270;28;20077;-80
2023/05/30 03:22:38;;;;;;;12.93;3.95;;;10.60;99.90;;;;;;5048856;28;20064;-80
2023/05/30 03:25:05;;;;;;;16.42;2.88;;;10.60;99.90;;;;;;5031412;28;20052;-80
2023/05/30 03:27:30;;;;;;;13.55;3.58;;;10.60;99.90;;;;;;5030292;28;20045;-80
2023/05/30 03:29:56;;;;;;;13.05;3.65;;;10.60;99.90;;;;;;5029629;28;20114;-80
2023/05/30 03:32:22;;;;;;;13.15;2.97;;;10.60;99.90;;;;;;5028567;28;20128;-80
2023/05/30 03:34:48;;;;;;;13.15;3.03;;;10.70;99.90;;;;;;5031733;28;20495;-80
2023/05/30 03:37:13;;;;;;;12.25;3.97;;;10.70;99.90;;;;;;5032976;28;20037;-80
2023/05/30 03:39:39;;;;;;;19.52;4.22;;;10.60;99.90;;;;;;5028664;28;20037;-79
2023/05/30 03:42:06;;;;;;;13.35;2.58;;;10.70;99.90;;;;;;5032092;28;20610;-80
2023/05/30 03:44:31;;;;;;;9.95;3.10;;;10.70;99.90;;;;;;5031094;28;20069;-79
2023/05/30 03:46:57;;;;;;;13.40;3.97;;;10.70;99.90;;;;;;5031511;28;20045;-80
2023/05/30 03:49:22;;;;;;;5.85;2.33;;;10.80;99.90;;;;;;5030679;28;20052;-80
2023/05/30 03:51:48;;;;;;;7.53;2.40;;;10.80;99.90;;;;;;5032007;28;20042;-80
2023/05/30 03:54:13;;;;;;;10.02;2.40;;;10.80;99.90;;;;;;5031749;28;20187;-80
2023/05/30 03:56:39;;;;;;;15.90;3.78;;;10.80;99.90;;;;;;5031075;28;20044;-79
2023/05/30 03:59:05;;;;;;;11.63;2.95;;;10.80;99.90;;;;;;5029424;28;20123;-80
2023/05/30 04:01:30;;;;;;;15.70;3.55;;;10.80;99.90;;;;;;5019682;28;20653;-80
2023/05/30 04:03:57;;;;;;;12.63;2.85;;;10.90;99.90;;;;;;5026213;28;20041;-80
2023/05/30 04:06:24;;;;;;;9.52;2.22;;;10.90;99.90;;;;;;5029997;28;20041;-80
2023/05/30 04:08:50;;;;;;;14.35;3.17;;;10.90;99.90;;;;;;5030599;28;20038;-80
2023/05/30 04:11:15;;;;;;;12.07;3.40;;;10.90;99.90;;;;;;5029998;28;20110;-80
2023/05/30 04:13:41;;;;;;;14.10;2.90;;;11.00;99.90;;;;;;5033234;28;20756;-80
2023/05/30 04:16:07;;;;;;;12.15;3.15;;;11.00;99.90;;;;;;5034437;28;20500;-80
2023/05/30 04:18:32;;;;;;;14.25;3.10;;;11.00;99.90;;;;;;5033381;28;20657;-80
2023/05/30 04:20:58;;;;;;;10.95;2.67;;;11.10;99.90;;;;;;5030857;28;20105;-79
2023/05/30 04:23:24;;;;;;;12.55;3.33;;;11.10;99.90;;;;;;5032382;28;20048;-79
2023/05/30 04:25:49;;;;;;;12.23;3.67;;;11.10;99.90;;;;;;5033683;28;20047;-80
2023/05/30 04:28:19;;;;;;;11.50;3.13;;;11.20;99.90;;;;;;5030270;28;20033;-80
2023/05/30 04:30:48;;;;;;;13.48;3.53;;;11.20;99.90;;;;;;5028389;28;20550;-80
2023/05/30 04:33:17;;;;;;;12.88;2.28;;;11.20;99.90;;;;;;5033782;28;20398;-79
2023/05/30 04:35:44;;;;;;;14.23;2.63;;;11.30;99.90;;;;;;5034445;28;21298;-81
2023/05/30 04:38:09;;;;;;;14.77;4.15;;;11.30;99.90;;;;;;5030070;28;20033;-80
2023/05/30 04:40:36;;;;;;;16.67;3.78;;;11.30;99.90;;;;;;5031386;28;20842;-81
2023/05/30 04:43:02;;;;;;;12.25;3.20;;;11.40;99.90;;;;;;5030264;28;20056;-80
2023/05/30 04:45:31;;;;;;;10.77;3.58;;;11.40;99.90;;;;;;5030011;28;20041;-81
2023/05/30 04:47:56;;;;;;;11.85;2.50;;;11.40;99.90;;;;;;5027833;28;20069;-81
2023/05/30 04:50:24;;;;;;;11.55;3.03;;;11.40;99.90;;;;;;5029033;28;20065;-80
2023/05/30 04:52:49;;;;;;;17.00;3.25;;;11.40;99.90;;;;;;5030333;28;20046;-80
2023/05/30 04:55:17;;;;;;;16.40;3.47;;;11.40;99.90;;;;;;5029214;28;20453;-79
2023/05/30 04:57:42;;;;;;;16.25;3.13;;;11.40;99.90;;;;;;5030445;28;20737;-81
2023/05/30 05:00:14;;;;;;;11.65;2.92;;;11.40;99.90;;;;;;5029311;28;20037;-79
2023/05/30 05:02:41;;;;;;;17.10;3.33;;;11.40;99.90;;;;;;5028034;28;20489;-79
2023/05/30 05:05:07;;;;;;;18.90;2.78;;;11.40;99.90;;;;;;5028546;28;20045;-79
2023/05/30 05:07:33;;;;;;;13.25;3.40;;;11.50;99.90;;;;;;5031472;28;20049;-80
2023/05/30 05:09:58;;;;;;;12.75;3.25;;;11.50;99.90;;;;;;5027143;28;20104;-82
2023/05/30 05:12:24;;;;;;;11.75;3.03;;;11.50;99.90;;;;;;5031512;28;20049;-80
2023/05/30 05:14:54;;;;;;;23.92;3.85;;;11.60;99.90;;;;;;5029334;28;20041;-80
2023/05/30 05:17:20;;;;;;;19.77;4.65;;;11.60;99.90;;;;;;5030215;28;20049;-80
2023/05/30 05:19:46;;;;;;;13.70;3.08;;;11.70;99.90;;;;;;5027448;28;20045;-81
2023/05/30 05:22:11;;;;;;;10.40;2.63;;;11.80;99.90;;;;;;5024514;28;20044;-80
2023/05/30 05:24:37;;;;;;;9.57;2.75;;;11.80;99.90;;;;;;5030482;28;20589;-81
2023/05/30 05:27:03;;;;;;;11.68;3.10;;;11.90;99.90;;;;;;5024971;28;20033;-80
2023/05/30 05:29:28;;;;;;;14.38;3.22;;;11.90;99.90;;;;;;5027870;28;20049;-80
2023/05/30 05:31:54;;;;;;;11.15;2.83;;;11.90;99.90;;;;;;5026414;28;20492;-80
2023/05/30 05:34:19;;;;;;;12.00;2.70;;;12.00;99.90;;;;;;5028482;28;20037;-80
2023/05/30 05:36:45;;;;;;;13.20;2.85;;;12.00;99.90;;;;;;5029466;28;20462;-80
2023/05/30 05:39:11;;;;;;;16.90;3.15;;;12.00;99.90;;;;;;5028466;28;20038;-81
2023/05/30 05:41:36;;;;;;;14.73;2.55;;;12.10;99.90;;;;;;5032467;28;20037;-81
2023/05/30 05:44:02;;;;;;;14.45;3.25;;;12.20;99.90;;;;;;5029831;28;20419;-81
2023/05/30 05:46:27;;;;;;;11.15;3.28;;;12.20;99.90;;;;;;5031087;28;20060;-81
2023/05/30 05:48:56;;;;;;;12.95;3.28;;;12.20;99.90;;;;;;5032647;28;20045;-81
2023/05/30 05:51:21;;;;;;;7.65;2.50;;;12.30;99.90;;;;;;5034806;28;20037;-81
2023/05/30 05:53:47;;;;;;;12.07;2.78;;;12.30;99.90;;;;;;5032248;28;20160;-81
2023/05/30 05:56:12;;;;;;;8.85;2.30;;;12.30;99.90;;;;;;5030691;28;20045;-81
2023/05/30 05:58:38;;;;;;;9.00;2.50;;;12.30;99.90;;;;;;5028278;28;20036;-81
2023/05/30 06:01:04;;;;;;;8.07;2.03;;;12.30;99.90;;;;;;5031271;28;20041;-81
2023/05/30 06:03:30;;;;;;;11.55;4.20;;;12.50;99.90;;;;;;5019687;28;20124;-81
2023/05/30 06:05:56;;;;;;;10.73;3.42;;;12.20;99.90;;;;;;5029022;28;20041;-80
2023/05/30 06:08:21;;;;;;;14.20;2.78;;;12.20;99.90;;;;;;5029863;28;20083;-80
2023/05/30 06:10:47;;;;;;;10.15;2.70;;;12.20;99.90;;;;;;5014793;28;20045;-80
2023/05/30 06:13:13;;;;;;;12.57;2.72;;;12.30;99.90;;;;;;5032936;28;20044;-81
2023/05/30 06:15:38;;;;;;;5.97;2.20;;;12.30;99.90;;;;;;5031532;28;20412;-81
2023/05/30 06:18:04;;;;;;;9.43;1.85;;;12.20;99.90;;;;;;5032198;28;20478;-80
2023/05/30 06:20:30;;;;;;;9.80;2.83;;;12.20;99.90;;;;;;5028281;28;20112;-80
2023/05/30 06:22:55;;;;;;;8.65;2.25;;;12.20;99.90;;;;;;5032153;28;20076;-80
2023/05/30 06:25:21;;;;;;;12.90;2.28;;;12.10;99.90;;;;;;5032143;28;20120;-80
2023/05/30 06:27:47;;;;;;;10.77;3.03;;;12.20;99.90;;;;;;5034044;28;20041;-80
2023/05/30 06:30:13;;;;;;;7.68;1.80;;;12.10;99.90;;;;;;5032837;28;20045;-81
2023/05/30 06:32:38;;;;;;;9.73;3.15;;;12.10;99.90;;;;;;5031553;28;20049;-80
2023/05/30 06:35:04;;;;;;;6.90;2.70;;;12.10;99.90;;;;;;5028669;28;20141;-80
2023/05/30 06:37:30;;;;;;;8.35;2.10;;;12.00;99.90;;;;;;5027425;28;20527;-80
2023/05/30 06:39:55;;;;;;;7.55;2.83;;;12.10;99.90;;;;;;5030708;28;20049;-80
2023/05/30 06:42:21;;;;;;;9.32;2.25;;;12.10;99.90;;;;;;5030658;28;20045;-80
2023/05/30 06:44:47;;;;;;;9.27;1.55;;;12.00;99.90;;;;;;5032939;28;20033;-80
2023/05/30 06:47:12;;;;;;;8.10;2.10;;;12.10;99.90;;;;;;5031341;28;20041;-80
2023/05/30 06:49:38;;;;;;;8.00;1.95;;;12.10;99.90;;;;;;5031123;28;20098;-80
2023/05/30 06:52:04;;;;;;;4.13;1.50;;;12.10;99.90;;;;;;5032423;28;20091;-80
2023/05/30 06:54:30;;;;;;;4.82;1.50;;;12.10;99.90;;;;;;5028240;28;20043;-80
2023/05/30 06:57:00;;;;;;;8.63;1.90;;;12.10;99.90;;;;;;5031417;28;20043;-80
2023/05/30 06:59:25;;;;;;;6.03;1.20;;;12.10;99.90;;;;;;5032660;28;20055;-81
2023/05/30 07:01:52;;;;;;;5.53;1.70;;;12.10;99.90;;;;;;5034716;28;20041;-81
2023/05/30 07:04:17;;;;;;;9.13;2.25;;;12.10;99.90;;;;;;5031651;28;20052;-81
2023/05/30 07:06:43;;;;;;;7.63;1.52;;;12.10;99.90;;;;;;5032587;28;20051;-80
2023/05/30 07:09:08;;;;;;;6.78;1.75;;;12.10;99.90;;;;;;5031919;28;20049;-81
2023/05/30 07:11:34;;;;;;;5.55;2.10;;;12.10;99.90;;;;;;5032090;28;20056;-80
2023/05/30 07:14:00;;;;;;;7.00;2.20;;;12.10;99.90;;;;;;5031376;28;20087;-81
2023/05/30 07:16:25;;;;;;;10.20;1.83;;;12.10;99.90;;;;;;5014481;28;20095;-81
2023/05/30 07:18:51;;;;;;;8.95;2.22;;;12.10;99.90;;;;;;5032068;28;20086;-80
2023/05/30 07:21:16;;;;;;;9.35;2.00;;;12.20;99.90;;;;;;5047346;28;20119;-81
2023/05/30 07:23:42;;;;;;;10.73;2.03;;;12.20;99.90;;;;;;5030614;28;20558;-81
2023/05/30 07:26:07;;;;;;;10.82;2.33;;;12.20;99.90;;;;;;5030356;28;20038;-81
2023/05/30 07:28:33;;;;;;;6.88;2.40;;;12.20;99.90;;;;;;5030338;28;20045;-81
2023/05/30 07:30:58;;;;;;;9.38;2.22;;;12.20;99.90;;;;;;5028825;28;20128;-81
2023/05/30 07:33:24;;;;;;;6.40;2.58;;;12.20;99.90;;;;;;5030260;28;20045;-80
2023/05/30 07:35:50;;;;;;;8.00;2.47;;;12.20;99.90;;;;;;5029077;28;20053;-81
2023/05/30 07:38:15;;;;;;;12.10;1.90;;;12.20;99.90;;;;;;5031597;28;20527;-81
2023/05/30 07:40:41;;;;;;;8.75;2.38;;;12.20;99.90;;;;;;5031632;28;20045;-82
2023/05/30 07:43:06;;;;;;;7.70;1.73;;;12.30;99.90;;;;;;5027157;28;20045;-80
2023/05/30 07:45:32;;;;;;;8.73;1.95;;;12.40;99.90;;;;;;5027737;28;20045;-81
2023/05/30 07:47:57;;;;;;;8.70;3.03;;;12.30;99.90;;;;;;5028585;28;20044;-81
2023/05/30 07:50:23;;;;;;;5.13;1.92;;;12.40;99.90;;;;;;5029697;28;20030;-82
2023/05/30 07:52:48;;;;;;;9.82;1.80;;;12.40;99.90;;;;;;5028548;28;20030;-80
2023/05/30 07:55:14;;;;;;;5.32;1.63;;;12.40;99.90;;;;;;5027058;28;20041;-81
2023/05/30 07:57:40;;;;;;;4.32;1.48;;;12.50;99.90;;;;;;5028656;28;20050;-82
2023/05/30 08:00:08;;;;;;;5.15;1.50;;;12.40;99.90;;;;;;5031787;28;20072;-81
2023/05/30 08:02:34;;;;;;;4.47;1.20;;;12.50;99.90;;;;;;5030180;28;20551;-81
2023/05/30 08:05:00;;;;;;;8.80;1.40;;;12.50;99.90;;;;;;5030359;28;20042;-81
2023/05/30 08:07:25;;;;;;;2.95;0.80;;;12.50;99.90;;;;;;5030147;28;20049;-81
2023/05/30 08:09:51;;;;;;;3.22;1.10;;;12.60;99.90;;;;;;5029411;28;20056;-82
2023/05/30 08:12:18;;;;;;;13.13;1.83;;;12.60;99.90;;;;;;5013794;28;20564;-82
2023/05/30 08:14:44;;;;;;;5.30;1.20;;;12.60;99.90;;;;;;5030120;28;20049;-82
2023/05/30 08:17:11;;;;;;;4.03;1.15;;;12.70;99.90;;;;;;5030659;28;20037;-82
2023/05/30 08:19:37;;;;;;;5.13;0.90;;;12.70;99.90;;;;;;5030232;28;20091;-82
2023/05/30 08:22:03;;;;;;;11.07;2.17;;;12.50;99.90;;;;;;5028828;28;20108;-82
2023/05/30 08:24:29;;;;;;;2.78;1.05;;;12.80;99.90;;;;;;5030177;28;20046;-82
2023/05/30 08:26:54;;;;;;;5.55;1.08;;;12.90;99.90;;;;;;5029306;28;20043;-82
2023/05/30 08:29:20;;;;;;;5.38;0.95;;;13.00;99.90;;;;;;5030468;28;20041;-82
2023/05/30 08:31:46;;;;;;;3.17;0.98;;;13.10;99.90;;;;;;5031464;28;20037;-81
2023/05/30 08:34:11;;;;;;;2.80;0.70;;;13.20;99.90;;;;;;5012680;28;20037;-81
2023/05/30 08:36:37;;;;;;;1.73;0.98;;;13.20;99.90;;;;;;5027896;28;20173;-81
2023/05/30 08:39:03;;;;;;;7.85;1.05;;;13.20;99.90;;;;;;5029813;28;20029;-82
2023/05/30 08:41:30;;;;;;;4.50;1.38;;;13.20;99.90;;;;;;5028950;28;20044;-82
2023/05/30 08:43:55;;;;;;;4.15;0.93;;;13.20;99.90;;;;;;5031635;28;20045;-82
2023/05/30 08:46:21;;;;;;;6.45;1.65;;;13.30;99.90;;;;;;5031560;28;20044;-81
2023/05/30 08:48:48;;;;;;;8.07;1.02;;;13.30;99.90;;;;;;5030929;28;20041;-82
2023/05/30 08:51:17;;;;;;;5.35;1.02;;;13.40;99.90;;;;;;5031558;28;20049;-82
2023/05/30 08:53:47;;;;;;;3.00;1.00;;;13.40;99.90;;;;;;5027024;28;20037;-82
2023/05/30 08:56:27;;;;;;;3.42;0.90;;;13.60;99.90;;;;;;5030774;28;20605;-82
2023/05/30 08:58:53;;;;;;;2.13;0.70;;;13.60;99.90;;;;;;5030398;28;20080;-82
2023/05/30 09:01:21;;;;;;;4.97;1.77;;;13.60;99.90;;;;;;5033639;28;20747;-82
2023/05/30 09:03:48;;;;;;;3.42;0.80;;;13.60;99.90;;;;;;5040908;28;20049;-82
2023/05/30 09:06:13;;;;;;;2.22;0.50;;;13.70;99.90;;;;;;5032869;28;20049;-81
2023/05/30 09:08:45;;;;;;;2.03;0.60;;;13.80;99.90;;;;;;5032009;28;20417;-82
2023/05/30 09:11:13;;;;;;;2.85;0.82;;;13.90;99.90;;;;;;5031155;28;20108;-82
2023/05/30 09:13:41;;;;;;;3.20;1.25;;;14.00;99.90;;;;;;5031229;28;20915;-81
2023/05/30 09:16:07;;;;;;;4.35;0.90;;;14.00;99.90;;;;;;5015966;28;20053;-81
2023/05/30 09:18:33;;;;;;;3.40;0.73;;;14.00;99.90;;;;;;5033648;28;20038;-81
2023/05/30 09:20:59;;;;;;;3.95;1.08;;;14.00;99.90;;;;;;5034362;28;20041;-81
2023/05/30 09:23:25;;;;;;;1.95;0.80;;;14.00;99.90;;;;;;5034444;28;20132;-81
2023/05/30 09:25:51;;;;;;;3.13;0.82;;;14.00;99.90;;;;;;5032829;28;20124;-82
2023/05/30 09:28:25;;;;;;;2.17;0.70;;;14.00;99.90;;;;;;5031484;28;20102;-82
2023/05/30 09:30:54;;;;;;;2.28;0.50;;;14.10;99.90;;;;;;5031840;28;20038;-81
2023/05/30 09:33:20;;;;;;;6.10;1.00;;;14.20;99.90;;;;;;5030553;28;20046;-82
2023/05/30 09:35:50;;;;;;;4.57;0.70;;;14.20;99.90;;;;;;5033903;28;20048;-81
2023/05/30 09:38:15;;;;;;;5.93;0.90;;;14.20;99.90;;;;;;5032311;28;20047;-81
2023/05/30 09:40:41;;;;;;;2.58;0.60;;;14.20;99.90;;;;;;5033563;28;20648;-82
2023/05/30 09:43:07;;;;;;;7.20;1.30;;;14.30;99.90;;;;;;5032592;28;20136;-82
2023/05/30 09:45:32;;;;;;;2.30;0.90;;;14.20;99.90;;;;;;5032398;28;20045;-82
2023/05/30 09:47:58;;;;;;;2.95;0.90;;;14.20;99.90;;;;;;5033220;28;20045;-82
2023/05/30 09:50:24;;;;;;;2.17;0.75;;;14.30;99.90;;;;;;5033866;28;20080;-82
2023/05/30 09:52:55;;;;;;;1.90;0.90;;;14.30;99.90;;;;;;5034097;28;20030;-81
2023/05/30 09:55:23;;;;;;;3.30;1.10;;;14.30;99.90;;;;;;5033190;28;20045;-82
2023/05/30 09:57:50;;;;;;;4.05;1.42;;;14.30;99.90;;;;;;5031765;28;20048;-82
2023/05/30 10:00:25;;;;;;;3.05;0.95;;;14.40;99.90;;;;;;5032422;28;20040;-82
2023/05/30 10:02:57;;;;;;;2.77;0.73;;;14.50;99.90;;;;;;5032848;28;20025;-81
2023/05/30 10:05:30;;;;;;;2.28;0.80;;;14.50;99.90;;;;;;5032383;28;20068;-81
2023/05/30 10:07:57;;;;;;;1.55;0.68;;;14.50;99.90;;;;;;5034091;28;20037;-81
2023/05/30 10:10:23;;;;;;;1.98;0.70;;;14.60;99.90;;;;;;5023432;28;20034;-81
2023/05/30 10:12:57;;;;;;;2.72;0.90;;;14.60;99.90;;;;;;5032418;28;20041;-81
2023/05/30 10:15:25;;;;;;;3.00;1.17;;;14.60;99.90;;;;;;5032412;28;20077;-81
2023/05/30 10:18:15;;;;;;;3.10;0.75;;;14.50;99.90;;;;;;5032272;28;20087;-82
2023/05/30 10:20:45;;;;;;;2.38;0.50;;;14.60;99.90;;;;;;5040903;28;20042;-81
2023/05/30 10:23:16;;;;;;;1.20;0.63;;;14.60;99.90;;;;;;5032937;28;20047;-83
2023/05/30 10:25:46;;;;;;;3.53;0.60;;;14.50;99.90;;;;;;5037679;28;20053;-83
2023/05/30 10:28:41;;;;;;;2.45;0.60;;;14.50;99.90;;;;;;5037869;28;20041;-83
2023/05/30 10:31:15;;;;;;;4.07;0.70;;;14.50;99.90;;;;;;4979760;28;20054;-84
2023/05/30 10:37:46;;;;;;;0.70;0.32;;;14.30;99.90;;;;;;5012575;28;20838;-84
2023/05/30 10:59:00;;;;;;;1.33;0.30;;;14.70;99.90;;;;;;4912835;28;20104;-83
2023/05/30 11:09:07;;;;;;;0.43;0.20;;;14.70;99.90;;;;;;4975346;28;20046;-83
2023/05/30 11:12:24;;;;;;;0.50;0.28;;;14.70;99.90;;;;;;4974865;28;20042;-84
2023/05/30 11:15:06;;;;;;;0.85;0.63;;;14.70;99.90;;;;;;4938258;28;20085;-82
2023/05/30 11:17:39;;;;;;;0.60;0.20;;;14.70;99.90;;;;;;4962997;28;20137;-82
2023/05/30 11:20:31;;;;;;;3.28;0.65;;;14.60;99.90;;;;;;5025537;28;20045;-82
2023/05/30 11:24:03;;;;;;;0.68;0.30;;;14.70;99.90;;;;;;5032048;28;20198;-83
2023/05/30 11:27:10;;;;;;;0.63;0.20;;;14.80;99.90;;;;;;5011004;28;20073;-82
2023/05/30 11:30:24;;;;;;;0.95;0.25;;;14.80;99.90;;;;;;5033578;28;20032;-84
2023/05/30 11:33:25;;;;;;;;;;;14.90;99.90;;;;;;5043737;28;20516;-83
2023/05/30 11:35:51;;;;;;;0.90;0.40;;;14.80;99.90;;;;;;5029589;28;20019;-81
2023/05/30 11:38:23;;;;;;;0.70;0.28;;;14.80;99.90;;;;;;5034280;28;20546;-83
2023/05/30 11:40:50;;;;;;;0.95;0.20;;;14.90;99.90;;;;;;5032215;28;20033;-82
2023/05/30 11:43:25;;;;;;;0.88;0.20;;;14.90;99.90;;;;;;5033593;28;20124;-84
2023/05/30 11:46:51;;;;;;;4.75;0.63;;;15.00;99.90;;;;;;5032063;28;20112;-84
2023/05/30 11:50:33;;;;;;;0.40;0.20;;;15.10;99.90;;;;;;5029045;28;20553;-84
2023/05/30 11:53:30;;;;;;;1.55;0.40;;;15.20;99.90;;;;;;4993002;28;20088;-84
2023/05/30 11:56:29;;;;;;;0.52;0.40;;;15.20;99.90;;;;;;4992653;28;20519;-85
2023/05/30 11:59:07;;;;;;;0.75;0.20;;;15.20;99.90;;;;;;4977693;28;20049;-82
2023/05/30 12:01:34;;;;;;;0.65;0.30;;;15.10;99.90;;;;;;5013261;28;20057;-82
2023/05/30 12:04:00;;;;;;;1.20;0.35;;;15.00;99.90;;;;;;5034133;28;20029;-82
2023/05/30 12:06:26;;;;;;;1.10;0.30;;;15.00;99.90;;;;;;5031876;28;20049;-81
2023/05/30 12:08:55;;;;;;;1.35;0.40;;;14.90;99.90;;;;;;5030756;28;20045;-83
2023/05/30 12:11:24;;;;;;;1.40;0.30;;;14.80;99.90;;;;;;5032706;28;20045;-83
2023/05/30 12:13:54;;;;;;;1.13;0.30;;;14.80;99.90;;;;;;5034814;28;20373;-82
2023/05/30 12:16:20;;;;;;;1.20;0.38;;;14.70;99.90;;;;;;5030775;28;20037;-83
2023/05/30 12:18:57;;;;;;;1.23;0.50;;;14.70;99.90;;;;;;5029420;28;20041;-82
2023/05/30 12:21:23;;;;;;;2.42;0.40;;;14.70;99.90;;;;;;5033918;28;20041;-82
2023/05/30 12:23:57;;;;;;;1.27;0.20;;;14.60;99.90;;;;;;5033339;28;20029;-82
2023/05/30 12:26:24;;;;;;;0.80;0.28;;;14.70;99.90;;;;;;5032578;28;20041;-82
2023/05/30 12:28:49;;;;;;;1.20;0.30;;;14.80;99.90;;;;;;5000916;28;20052;-82
2023/05/30 12:31:25;;;;;;;1.73;0.40;;;14.80;99.90;;;;;;5035875;28;20045;-82
2023/05/30 12:33:50;;;;;;;;;;;14.90;99.90;;;;;;5032926;28;20045;-82
2023/05/30 12:36:16;;;;;;;0.73;0.40;;;15.00;99.90;;;;;;5032258;28;19921;-83
2023/05/30 12:38:42;;;;;;;2.53;0.40;;;15.10;99.90;;;;;;5035918;28;20083;-82
2023/05/30 12:41:08;;;;;;;1.55;0.45;;;15.10;99.90;;;;;;5029117;28;20033;-82
2023/05/30 12:43:54;;;;;;;3.33;0.40;;;15.10;99.90;;;;;;5037777;28;20050;-83
2023/05/30 12:46:28;;;;;;;1.00;0.40;;;15.20;99.90;;;;;;5017632;28;20073;-83
2023/05/30 12:49:03;;;;;;;0.77;0.30;;;15.20;99.90;;;;;;5019654;28;20084;-83
2023/05/30 12:51:44;;;;;;;1.58;0.28;;;15.20;99.90;;;;;;5025794;28;20045;-82
2023/05/30 12:54:11;;;;;;;0.63;0.43;;;15.00;99.90;;;;;;5039029;28;20033;-82
2023/05/30 12:56:42;;;;;;;2.05;0.60;;;15.10;99.90;;;;;;5035436;28;20050;-82
2023/05/30 12:59:08;;;;;;;2.05;0.60;;;15.10;99.90;;;;;;5034561;28;20155;-82
2023/05/30 13:01:44;;;;;;;10.57;1.33;;;15.00;99.90;;;;;;5034534;28;20128;-82
2023/05/30 13:04:25;;;;;;;1.48;0.40;;;15.00;99.90;;;;;;5025764;28;20523;-83
2023/05/30 13:07:13;;;;;;;2.83;0.93;;;15.10;99.90;;;;;;5036594;28;20052;-83
2023/05/30 13:10:33;;;;;;;1.63;0.40;;;15.10;99.90;;;;;;4992759;28;20049;-83
2023/05/30 13:20:52;;;;;;;2.40;0.38;;;15.00;99.90;;;;;;5033289;28;20494;-83
2023/05/30 13:23:18;;;;;;;;;;;15.00;99.90;;;;;;5036791;28;20547;-82
2023/05/30 13:25:44;;;;;;;2.92;0.60;;;15.00;99.90;;;;;;5036049;28;19965;-82
2023/05/30 13:28:10;;;;;;;3.58;0.40;;;15.10;99.90;;;;;;5018245;28;20407;-82
2023/05/30 13:30:36;;;;;;;2.03;0.50;;;15.30;99.90;;;;;;5018565;28;20061;-82
2023/05/30 13:33:02;;;;;;;1.05;0.45;;;15.10;99.90;;;;;;5036921;28;20052;-82